sensor_id;sensor_type;location;lat;lon;timestamp;P1;durP1;ratioP1;P2;durP2;ratioP2
21181;SDS011;10749;46.296;7.524;2022-08-20T00:00:40;5.78;;;4.38;;
21181;SDS011;10749;46.296;7.524;2022-08-20T00:03:09;5.55;;;4.65;;
21181;SDS011;10749;46.296;7.524;2022-08-20T00:05:41;6.72;;;5.40;;
21181;SDS011;10749;46.296;7.524;2022-08-20T00:08:09;5.95;;;5.45;;
21181;SDS011;10749;46.296;7.524;2022-08-20T00:10:36;5.30;;;4.80;;
21181;SDS011;10749;46.296;7.524;2022-08-20T00:13:05;5.85;;;5.25;;
21181;SDS011;10749;46.296;7.524;2022-08-20T00:15:33;5.80;;;5.20;;
21181;SDS011;10749;46.296;7.524;2022-08-20T00:17:59;5.20;;;4.70;;
21181;SDS011;10749;46.296;7.524;2022-08-20T00:20:27;6.47;;;5.22;;
21181;SDS011;10749;46.296;7.524;2022-08-20T00:22:55;6.05;;;4.95;;
21181;SDS011;10749;46.296;7.524;2022-08-20T00:25:22;5.68;;;4.75;;
21181;SDS011;10749;46.296;7.524;2022-08-20T00:27:48;6.18;;;4.88;;
21181;SDS011;10749;46.296;7.524;2022-08-20T00:30:14;5.82;;;5.20;;
21181;SDS011;10749;46.296;7.524;2022-08-20T00:32:44;6.20;;;5.10;;
21181;SDS011;10749;46.296;7.524;2022-08-20T00:35:11;6.28;;;5.25;;
21181;SDS011;10749;46.296;7.524;2022-08-20T00:37:39;6.85;;;4.93;;
21181;SDS011;10749;46.296;7.524;2022-08-20T00:40:05;7.10;;;4.60;;
21181;SDS011;10749;46.296;7.524;2022-08-20T00:42:43;6.18;;;4.85;;
21181;SDS011;10749;46.296;7.524;2022-08-20T00:45:11;4.80;;;4.15;;
21181;SDS011;10749;46.296;7.524;2022-08-20T00:47:37;5.28;;;4.53;;
21181;SDS011;10749;46.296;7.524;2022-08-20T00:50:11;4.95;;;4.45;;
21181;SDS011;10749;46.296;7.524;2022-08-20T00:52:40;5.82;;;4.65;;
21181;SDS011;10749;46.296;7.524;2022-08-20T00:55:09;5.72;;;4.25;;
21181;SDS011;10749;46.296;7.524;2022-08-20T00:57:37;6.95;;;4.68;;
21181;SDS011;10749;46.296;7.524;2022-08-20T01:00:06;6.15;;;5.25;;
21181;SDS011;10749;46.296;7.524;2022-08-20T01:02:45;5.57;;;5.07;;
21181;SDS011;10749;46.296;7.524;2022-08-20T01:05:11;5.30;;;4.80;;
21181;SDS011;10749;46.296;7.524;2022-08-20T01:07:37;6.88;;;4.97;;
21181;SDS011;10749;46.296;7.524;2022-08-20T01:10:05;6.43;;;4.90;;
21181;SDS011;10749;46.296;7.524;2022-08-20T01:12:34;5.65;;;5.05;;
21181;SDS011;10749;46.296;7.524;2022-08-20T01:15:04;5.70;;;5.10;;
21181;SDS011;10749;46.296;7.524;2022-08-20T01:17:32;6.25;;;5.15;;
21181;SDS011;10749;46.296;7.524;2022-08-20T01:20:03;8.73;;;5.55;;
21181;SDS011;10749;46.296;7.524;2022-08-20T01:22:45;6.25;;;5.28;;
21181;SDS011;10749;46.296;7.524;2022-08-20T01:28:03;5.47;;;4.90;;
21181;SDS011;10749;46.296;7.524;2022-08-20T01:30:29;6.70;;;4.43;;
21181;SDS011;10749;46.296;7.524;2022-08-20T01:32:56;7.25;;;4.53;;
21181;SDS011;10749;46.296;7.524;2022-08-20T01:35:22;5.90;;;4.90;;
21181;SDS011;10749;46.296;7.524;2022-08-20T01:37:48;5.60;;;4.60;;
21181;SDS011;10749;46.296;7.524;2022-08-20T01:40:15;5.13;;;4.63;;
21181;SDS011;10749;46.296;7.524;2022-08-20T01:42:47;7.28;;;4.88;;
21181;SDS011;10749;46.296;7.524;2022-08-20T01:45:14;8.20;;;5.03;;
21181;SDS011;10749;46.296;7.524;2022-08-20T01:47:40;7.30;;;4.75;;
21181;SDS011;10749;46.296;7.524;2022-08-20T01:50:07;5.60;;;4.47;;
21181;SDS011;10749;46.296;7.524;2022-08-20T01:55:21;4.80;;;4.30;;
21181;SDS011;10749;46.296;7.524;2022-08-20T01:57:47;6.60;;;4.60;;
21181;SDS011;10749;46.296;7.524;2022-08-20T02:00:14;4.40;;;4.00;;
21181;SDS011;10749;46.296;7.524;2022-08-20T02:02:42;6.07;;;4.80;;
21181;SDS011;10749;46.296;7.524;2022-08-20T02:05:08;4.80;;;4.30;;
21181;SDS011;10749;46.296;7.524;2022-08-20T02:07:34;5.57;;;4.03;;
21181;SDS011;10749;46.296;7.524;2022-08-20T02:10:00;6.47;;;4.57;;
21181;SDS011;10749;46.296;7.524;2022-08-20T02:12:25;9.15;;;4.68;;
21181;SDS011;10749;46.296;7.524;2022-08-20T02:14:52;6.65;;;4.75;;
21181;SDS011;10749;46.296;7.524;2022-08-20T02:17:20;5.25;;;4.75;;
21181;SDS011;10749;46.296;7.524;2022-08-20T02:19:52;7.35;;;5.13;;
21181;SDS011;10749;46.296;7.524;2022-08-20T02:22:23;8.10;;;4.85;;
21181;SDS011;10749;46.296;7.524;2022-08-20T02:24:53;8.10;;;4.40;;
21181;SDS011;10749;46.296;7.524;2022-08-20T02:27:18;6.28;;;4.95;;
21181;SDS011;10749;46.296;7.524;2022-08-20T02:29:45;5.80;;;4.53;;
21181;SDS011;10749;46.296;7.524;2022-08-20T02:32:11;8.88;;;4.60;;
21181;SDS011;10749;46.296;7.524;2022-08-20T02:34:36;5.57;;;5.03;;
21181;SDS011;10749;46.296;7.524;2022-08-20T02:37:03;6.50;;;5.35;;
21181;SDS011;10749;46.296;7.524;2022-08-20T02:39:30;7.70;;;4.97;;
21181;SDS011;10749;46.296;7.524;2022-08-20T02:41:56;5.72;;;5.13;;
21181;SDS011;10749;46.296;7.524;2022-08-20T02:44:21;5.10;;;4.60;;
21181;SDS011;10749;46.296;7.524;2022-08-20T02:46:47;6.43;;;4.28;;
21181;SDS011;10749;46.296;7.524;2022-08-20T02:49:16;6.40;;;4.70;;
21181;SDS011;10749;46.296;7.524;2022-08-20T02:51:42;6.55;;;5.18;;
21181;SDS011;10749;46.296;7.524;2022-08-20T02:54:09;10.07;;;4.97;;
21181;SDS011;10749;46.296;7.524;2022-08-20T02:56:35;5.32;;;4.57;;
21181;SDS011;10749;46.296;7.524;2022-08-20T02:59:00;7.75;;;5.22;;
21181;SDS011;10749;46.296;7.524;2022-08-20T03:01:26;5.57;;;4.93;;
21181;SDS011;10749;46.296;7.524;2022-08-20T03:03:51;5.55;;;5.00;;
21181;SDS011;10749;46.296;7.524;2022-08-20T03:06:17;5.72;;;5.07;;
21181;SDS011;10749;46.296;7.524;2022-08-20T03:08:42;5.53;;;4.78;;
21181;SDS011;10749;46.296;7.524;2022-08-20T03:11:08;4.95;;;4.32;;
21181;SDS011;10749;46.296;7.524;2022-08-20T03:13:34;5.75;;;4.60;;
21181;SDS011;10749;46.296;7.524;2022-08-20T03:16:00;8.02;;;5.20;;
21181;SDS011;10749;46.296;7.524;2022-08-20T03:18:31;6.68;;;4.95;;
21181;SDS011;10749;46.296;7.524;2022-08-20T03:21:00;7.25;;;5.38;;
21181;SDS011;10749;46.296;7.524;2022-08-20T03:23:26;5.80;;;4.95;;
21181;SDS011;10749;46.296;7.524;2022-08-20T03:25:52;6.55;;;4.90;;
21181;SDS011;10749;46.296;7.524;2022-08-20T03:28:17;5.30;;;4.80;;
21181;SDS011;10749;46.296;7.524;2022-08-20T03:30:43;7.03;;;4.75;;
21181;SDS011;10749;46.296;7.524;2022-08-20T03:33:09;6.07;;;4.05;;
21181;SDS011;10749;46.296;7.524;2022-08-20T03:35:35;7.07;;;4.75;;
21181;SDS011;10749;46.296;7.524;2022-08-20T03:38:04;5.50;;;5.00;;
21181;SDS011;10749;46.296;7.524;2022-08-20T03:40:32;6.05;;;4.55;;
21181;SDS011;10749;46.296;7.524;2022-08-20T03:42:58;5.32;;;4.82;;
21181;SDS011;10749;46.296;7.524;2022-08-20T03:45:25;6.05;;;4.50;;
21181;SDS011;10749;46.296;7.524;2022-08-20T03:47:51;7.43;;;4.82;;
21181;SDS011;10749;46.296;7.524;2022-08-20T03:50:18;5.57;;;4.93;;
21181;SDS011;10749;46.296;7.524;2022-08-20T03:52:48;6.28;;;4.82;;
21181;SDS011;10749;46.296;7.524;2022-08-20T03:55:14;6.55;;;4.93;;
21181;SDS011;10749;46.296;7.524;2022-08-20T03:57:44;7.25;;;5.00;;
21181;SDS011;10749;46.296;7.524;2022-08-20T04:00:12;6.78;;;5.47;;
21181;SDS011;10749;46.296;7.524;2022-08-20T04:02:39;7.88;;;5.18;;
21181;SDS011;10749;46.296;7.524;2022-08-20T04:05:05;5.78;;;4.88;;
21181;SDS011;10749;46.296;7.524;2022-08-20T04:07:31;5.22;;;4.38;;
21181;SDS011;10749;46.296;7.524;2022-08-20T04:09:56;5.93;;;4.90;;
21181;SDS011;10749;46.296;7.524;2022-08-20T04:12:22;6.65;;;5.15;;
21181;SDS011;10749;46.296;7.524;2022-08-20T04:14:49;7.40;;;4.80;;
21181;SDS011;10749;46.296;7.524;2022-08-20T04:17:15;9.48;;;5.13;;
21181;SDS011;10749;46.296;7.524;2022-08-20T04:19:42;6.68;;;4.55;;
21181;SDS011;10749;46.296;7.524;2022-08-20T04:22:11;5.93;;;5.32;;
21181;SDS011;10749;46.296;7.524;2022-08-20T04:24:41;5.97;;;5.10;;
21181;SDS011;10749;46.296;7.524;2022-08-20T04:27:07;6.22;;;4.97;;
21181;SDS011;10749;46.296;7.524;2022-08-20T04:29:34;6.05;;;4.93;;
21181;SDS011;10749;46.296;7.524;2022-08-20T04:32:00;5.03;;;4.53;;
21181;SDS011;10749;46.296;7.524;2022-08-20T04:34:27;6.88;;;5.10;;
21181;SDS011;10749;46.296;7.524;2022-08-20T04:36:53;5.82;;;5.22;;
21181;SDS011;10749;46.296;7.524;2022-08-20T04:39:18;6.60;;;5.15;;
21181;SDS011;10749;46.296;7.524;2022-08-20T04:41:44;5.25;;;4.75;;
21181;SDS011;10749;46.296;7.524;2022-08-20T04:44:09;5.30;;;4.80;;
21181;SDS011;10749;46.296;7.524;2022-08-20T04:46:35;5.88;;;4.65;;
21181;SDS011;10749;46.296;7.524;2022-08-20T04:49:00;5.53;;;4.93;;
21181;SDS011;10749;46.296;7.524;2022-08-20T04:51:27;4.63;;;4.20;;
21181;SDS011;10749;46.296;7.524;2022-08-20T04:53:53;5.38;;;4.78;;
21181;SDS011;10749;46.296;7.524;2022-08-20T04:56:21;5.43;;;4.93;;
21181;SDS011;10749;46.296;7.524;2022-08-20T04:58:48;6.05;;;5.15;;
21181;SDS011;10749;46.296;7.524;2022-08-20T05:01:15;5.50;;;4.65;;
21181;SDS011;10749;46.296;7.524;2022-08-20T05:03:40;6.65;;;4.70;;
21181;SDS011;10749;46.296;7.524;2022-08-20T05:06:07;5.65;;;5.10;;
21181;SDS011;10749;46.296;7.524;2022-08-20T05:08:34;5.18;;;4.68;;
21181;SDS011;10749;46.296;7.524;2022-08-20T05:11:00;9.32;;;4.72;;
21181;SDS011;10749;46.296;7.524;2022-08-20T05:13:26;5.60;;;4.93;;
21181;SDS011;10749;46.296;7.524;2022-08-20T05:15:51;5.38;;;4.88;;
21181;SDS011;10749;46.296;7.524;2022-08-20T05:18:18;5.72;;;5.07;;
21181;SDS011;10749;46.296;7.524;2022-08-20T05:20:46;6.40;;;4.53;;
21181;SDS011;10749;46.296;7.524;2022-08-20T05:23:13;5.60;;;4.70;;
21181;SDS011;10749;46.296;7.524;2022-08-20T05:25:41;5.53;;;4.60;;
21181;SDS011;10749;46.296;7.524;2022-08-20T05:28:09;5.47;;;4.70;;
21181;SDS011;10749;46.296;7.524;2022-08-20T05:30:41;6.28;;;5.03;;
21181;SDS011;10749;46.296;7.524;2022-08-20T05:33:08;5.55;;;5.00;;
21181;SDS011;10749;46.296;7.524;2022-08-20T05:35:35;6.57;;;4.93;;
21181;SDS011;10749;46.296;7.524;2022-08-20T05:38:05;6.30;;;5.70;;
21181;SDS011;10749;46.296;7.524;2022-08-20T05:40:34;5.47;;;4.97;;
21181;SDS011;10749;46.296;7.524;2022-08-20T05:42:59;6.70;;;5.95;;
21181;SDS011;10749;46.296;7.524;2022-08-20T05:45:28;6.25;;;5.47;;
21181;SDS011;10749;46.296;7.524;2022-08-20T05:47:55;6.20;;;5.60;;
21181;SDS011;10749;46.296;7.524;2022-08-20T05:50:21;6.38;;;5.78;;
21181;SDS011;10749;46.296;7.524;2022-08-20T05:52:46;9.25;;;6.10;;
21181;SDS011;10749;46.296;7.524;2022-08-20T05:55:11;6.65;;;5.70;;
21181;SDS011;10749;46.296;7.524;2022-08-20T05:57:37;7.72;;;5.55;;
21181;SDS011;10749;46.296;7.524;2022-08-20T06:00:05;6.47;;;5.60;;
21181;SDS011;10749;46.296;7.524;2022-08-20T06:02:32;8.43;;;5.82;;
21181;SDS011;10749;46.296;7.524;2022-08-20T06:05:16;6.22;;;5.63;;
21181;SDS011;10749;46.296;7.524;2022-08-20T06:07:43;6.85;;;5.82;;
21181;SDS011;10749;46.296;7.524;2022-08-20T06:10:09;6.82;;;6.13;;
21181;SDS011;10749;46.296;7.524;2022-08-20T06:12:35;6.80;;;6.05;;
21181;SDS011;10749;46.296;7.524;2022-08-20T06:15:01;8.05;;;5.35;;
21181;SDS011;10749;46.296;7.524;2022-08-20T06:17:27;5.82;;;5.22;;
21181;SDS011;10749;46.296;7.524;2022-08-20T06:19:53;6.38;;;5.47;;
21181;SDS011;10749;46.296;7.524;2022-08-20T06:22:19;7.63;;;6.43;;
21181;SDS011;10749;46.296;7.524;2022-08-20T06:24:45;8.00;;;5.75;;
21181;SDS011;10749;46.296;7.524;2022-08-20T06:27:12;6.93;;;5.82;;
21181;SDS011;10749;46.296;7.524;2022-08-20T06:29:39;8.48;;;5.75;;
21181;SDS011;10749;46.296;7.524;2022-08-20T06:32:04;6.78;;;5.72;;
21181;SDS011;10749;46.296;7.524;2022-08-20T06:34:30;8.13;;;5.85;;
21181;SDS011;10749;46.296;7.524;2022-08-20T06:36:55;7.25;;;5.88;;
21181;SDS011;10749;46.296;7.524;2022-08-20T06:39:23;6.45;;;5.85;;
21181;SDS011;10749;46.296;7.524;2022-08-20T06:41:48;6.65;;;5.97;;
21181;SDS011;10749;46.296;7.524;2022-08-20T06:44:15;7.80;;;5.93;;
21181;SDS011;10749;46.296;7.524;2022-08-20T06:46:41;6.47;;;5.88;;
21181;SDS011;10749;46.296;7.524;2022-08-20T06:49:07;6.63;;;5.93;;
21181;SDS011;10749;46.296;7.524;2022-08-20T06:51:33;6.72;;;6.05;;
21181;SDS011;10749;46.296;7.524;2022-08-20T06:53:59;6.30;;;5.70;;
21181;SDS011;10749;46.296;7.524;2022-08-20T06:56:24;7.07;;;5.60;;
21181;SDS011;10749;46.296;7.524;2022-08-20T06:58:50;6.55;;;5.88;;
21181;SDS011;10749;46.296;7.524;2022-08-20T07:01:15;8.32;;;5.95;;
21181;SDS011;10749;46.296;7.524;2022-08-20T07:03:45;8.52;;;6.05;;
21181;SDS011;10749;46.296;7.524;2022-08-20T07:06:12;7.82;;;5.53;;
21181;SDS011;10749;46.296;7.524;2022-08-20T07:08:38;8.60;;;6.13;;
21181;SDS011;10749;46.296;7.524;2022-08-20T07:11:04;6.75;;;5.90;;
21181;SDS011;10749;46.296;7.524;2022-08-20T07:13:30;6.53;;;5.82;;
21181;SDS011;10749;46.296;7.524;2022-08-20T07:15:55;7.68;;;5.60;;
21181;SDS011;10749;46.296;7.524;2022-08-20T07:18:21;6.05;;;5.45;;
21181;SDS011;10749;46.296;7.524;2022-08-20T07:20:47;8.35;;;5.65;;
21181;SDS011;10749;46.296;7.524;2022-08-20T07:23:12;6.10;;;5.50;;
21181;SDS011;10749;46.296;7.524;2022-08-20T07:25:38;6.40;;;5.80;;
21181;SDS011;10749;46.296;7.524;2022-08-20T07:28:07;6.97;;;5.57;;
21181;SDS011;10749;46.296;7.524;2022-08-20T07:30:38;6.32;;;5.72;;
21181;SDS011;10749;46.296;7.524;2022-08-20T07:33:22;7.97;;;5.82;;
21181;SDS011;10749;46.296;7.524;2022-08-20T07:35:47;7.70;;;5.40;;
21181;SDS011;10749;46.296;7.524;2022-08-20T07:38:14;6.43;;;5.68;;
21181;SDS011;10749;46.296;7.524;2022-08-20T07:40:48;6.55;;;5.78;;
21181;SDS011;10749;46.296;7.524;2022-08-20T07:43:17;6.50;;;5.63;;
21181;SDS011;10749;46.296;7.524;2022-08-20T07:45:45;8.10;;;5.70;;
21181;SDS011;10749;46.296;7.524;2022-08-20T07:48:11;6.55;;;5.75;;
21181;SDS011;10749;46.296;7.524;2022-08-20T07:50:38;7.43;;;5.82;;
21181;SDS011;10749;46.296;7.524;2022-08-20T07:53:04;7.03;;;6.10;;
21181;SDS011;10749;46.296;7.524;2022-08-20T07:55:29;6.65;;;6.00;;
21181;SDS011;10749;46.296;7.524;2022-08-20T07:57:56;6.53;;;5.65;;
21181;SDS011;10749;46.296;7.524;2022-08-20T08:00:23;6.90;;;6.25;;
21181;SDS011;10749;46.296;7.524;2022-08-20T08:02:50;6.65;;;5.65;;
21181;SDS011;10749;46.296;7.524;2022-08-20T08:05:16;7.18;;;6.13;;
21181;SDS011;10749;46.296;7.524;2022-08-20T08:07:42;7.13;;;6.07;;
21181;SDS011;10749;46.296;7.524;2022-08-20T08:10:10;6.50;;;5.90;;
21181;SDS011;10749;46.296;7.524;2022-08-20T08:12:39;9.38;;;5.35;;
21181;SDS011;10749;46.296;7.524;2022-08-20T08:15:10;7.20;;;5.53;;
21181;SDS011;10749;46.296;7.524;2022-08-20T08:17:39;6.03;;;5.22;;
21181;SDS011;10749;46.296;7.524;2022-08-20T08:20:05;5.32;;;4.82;;
21181;SDS011;10749;46.296;7.524;2022-08-20T08:22:32;4.78;;;4.30;;
21181;SDS011;10749;46.296;7.524;2022-08-20T08:24:57;4.80;;;4.40;;
21181;SDS011;10749;46.296;7.524;2022-08-20T08:27:26;5.30;;;4.80;;
21181;SDS011;10749;46.296;7.524;2022-08-20T08:29:57;4.70;;;4.20;;
21181;SDS011;10749;46.296;7.524;2022-08-20T08:32:27;5.18;;;4.18;;
21181;SDS011;10749;46.296;7.524;2022-08-20T08:34:55;5.88;;;4.60;;
21181;SDS011;10749;46.296;7.524;2022-08-20T08:37:20;5.90;;;5.30;;
21181;SDS011;10749;46.296;7.524;2022-08-20T08:39:46;7.65;;;5.38;;
21181;SDS011;10749;46.296;7.524;2022-08-20T08:45:01;6.18;;;4.82;;
21181;SDS011;10749;46.296;7.524;2022-08-20T08:47:30;5.60;;;4.88;;
21181;SDS011;10749;46.296;7.524;2022-08-20T08:50:00;7.00;;;5.15;;
21181;SDS011;10749;46.296;7.524;2022-08-20T08:52:30;6.55;;;4.97;;
21181;SDS011;10749;46.296;7.524;2022-08-20T08:54:59;5.38;;;4.88;;
21181;SDS011;10749;46.296;7.524;2022-08-20T08:57:28;5.80;;;5.30;;
21181;SDS011;10749;46.296;7.524;2022-08-20T08:59:57;5.03;;;4.53;;
21181;SDS011;10749;46.296;7.524;2022-08-20T09:02:25;5.22;;;4.53;;
21181;SDS011;10749;46.296;7.524;2022-08-20T09:04:55;5.03;;;4.53;;
21181;SDS011;10749;46.296;7.524;2022-08-20T09:07:25;6.63;;;4.30;;
21181;SDS011;10749;46.296;7.524;2022-08-20T09:09:54;5.57;;;4.72;;
21181;SDS011;10749;46.296;7.524;2022-08-20T09:12:20;5.75;;;5.10;;
21181;SDS011;10749;46.296;7.524;2022-08-20T09:14:48;7.00;;;5.45;;
21181;SDS011;10749;46.296;7.524;2022-08-20T09:17:15;4.93;;;4.43;;
21181;SDS011;10749;46.296;7.524;2022-08-20T09:19:41;5.03;;;4.32;;
21181;SDS011;10749;46.296;7.524;2022-08-20T09:22:10;6.22;;;4.82;;
21181;SDS011;10749;46.296;7.524;2022-08-20T09:24:37;5.53;;;4.47;;
21181;SDS011;10749;46.296;7.524;2022-08-20T09:27:03;6.05;;;4.18;;
21181;SDS011;10749;46.296;7.524;2022-08-20T09:29:29;5.00;;;4.00;;
21181;SDS011;10749;46.296;7.524;2022-08-20T09:32:08;5.03;;;4.22;;
21181;SDS011;10749;46.296;7.524;2022-08-20T09:34:45;4.63;;;3.67;;
21181;SDS011;10749;46.296;7.524;2022-08-20T09:37:12;5.65;;;4.00;;
21181;SDS011;10749;46.296;7.524;2022-08-20T09:39:39;4.35;;;3.95;;
21181;SDS011;10749;46.296;7.524;2022-08-20T09:42:07;4.35;;;3.88;;
21181;SDS011;10749;46.296;7.524;2022-08-20T09:44:37;4.35;;;3.90;;
21181;SDS011;10749;46.296;7.524;2022-08-20T09:47:02;4.32;;;3.90;;
21181;SDS011;10749;46.296;7.524;2022-08-20T09:49:28;5.00;;;3.92;;
21181;SDS011;10749;46.296;7.524;2022-08-20T09:51:53;5.35;;;3.78;;
21181;SDS011;10749;46.296;7.524;2022-08-20T09:54:19;4.53;;;4.13;;
21181;SDS011;10749;46.296;7.524;2022-08-20T09:56:45;4.65;;;4.25;;
21181;SDS011;10749;46.296;7.524;2022-08-20T09:59:11;4.82;;;4.32;;
21181;SDS011;10749;46.296;7.524;2022-08-20T10:01:40;4.90;;;4.43;;
21181;SDS011;10749;46.296;7.524;2022-08-20T10:04:05;6.18;;;4.50;;
21181;SDS011;10749;46.296;7.524;2022-08-20T10:06:31;7.63;;;4.25;;
21181;SDS011;10749;46.296;7.524;2022-08-20T10:09:03;5.00;;;4.55;;
21181;SDS011;10749;46.296;7.524;2022-08-20T10:11:29;6.18;;;4.72;;
21181;SDS011;10749;46.296;7.524;2022-08-20T10:13:54;6.65;;;4.60;;
21181;SDS011;10749;46.296;7.524;2022-08-20T10:16:19;5.47;;;4.72;;
21181;SDS011;10749;46.296;7.524;2022-08-20T10:18:44;5.68;;;5.10;;
21181;SDS011;10749;46.296;7.524;2022-08-20T10:21:13;6.60;;;4.60;;
21181;SDS011;10749;46.296;7.524;2022-08-20T10:23:39;5.03;;;4.45;;
21181;SDS011;10749;46.296;7.524;2022-08-20T10:26:05;5.28;;;4.78;;
21181;SDS011;10749;46.296;7.524;2022-08-20T10:28:35;5.35;;;4.60;;
21181;SDS011;10749;46.296;7.524;2022-08-20T10:31:00;7.43;;;4.65;;
21181;SDS011;10749;46.296;7.524;2022-08-20T10:33:26;4.78;;;4.20;;
21181;SDS011;10749;46.296;7.524;2022-08-20T10:35:51;5.70;;;4.68;;
21181;SDS011;10749;46.296;7.524;2022-08-20T10:38:16;5.53;;;5.03;;
21181;SDS011;10749;46.296;7.524;2022-08-20T10:40:42;5.30;;;4.80;;
21181;SDS011;10749;46.296;7.524;2022-08-20T10:43:07;6.53;;;5.55;;
21181;SDS011;10749;46.296;7.524;2022-08-20T10:45:33;5.82;;;4.47;;
21181;SDS011;10749;46.296;7.524;2022-08-20T10:47:59;5.50;;;5.00;;
21181;SDS011;10749;46.296;7.524;2022-08-20T10:50:25;5.47;;;4.80;;
21181;SDS011;10749;46.296;7.524;2022-08-20T10:52:50;5.93;;;5.10;;
21181;SDS011;10749;46.296;7.524;2022-08-20T10:55:15;5.82;;;4.97;;
21181;SDS011;10749;46.296;7.524;2022-08-20T10:57:41;8.13;;;4.97;;
21181;SDS011;10749;46.296;7.524;2022-08-20T11:00:07;5.55;;;4.65;;
21181;SDS011;10749;46.296;7.524;2022-08-20T11:02:34;6.45;;;4.90;;
21181;SDS011;10749;46.296;7.524;2022-08-20T11:05:00;7.22;;;4.95;;
21181;SDS011;10749;46.296;7.524;2022-08-20T11:07:26;5.78;;;5.18;;
21181;SDS011;10749;46.296;7.524;2022-08-20T11:09:54;5.40;;;4.90;;
21181;SDS011;10749;46.296;7.524;2022-08-20T11:12:20;5.10;;;4.53;;
21181;SDS011;10749;46.296;7.524;2022-08-20T11:14:46;7.32;;;5.75;;
21181;SDS011;10749;46.296;7.524;2022-08-20T11:17:17;6.53;;;5.05;;
21181;SDS011;10749;46.296;7.524;2022-08-20T11:19:48;5.05;;;4.47;;
21181;SDS011;10749;46.296;7.524;2022-08-20T11:22:14;5.40;;;4.90;;
21181;SDS011;10749;46.296;7.524;2022-08-20T11:24:39;6.32;;;4.80;;
21181;SDS011;10749;46.296;7.524;2022-08-20T11:27:05;4.75;;;4.35;;
21181;SDS011;10749;46.296;7.524;2022-08-20T11:29:32;6.03;;;4.45;;
21181;SDS011;10749;46.296;7.524;2022-08-20T11:31:58;4.60;;;3.65;;
21181;SDS011;10749;46.296;7.524;2022-08-20T11:34:24;4.47;;;4.07;;
21181;SDS011;10749;46.296;7.524;2022-08-20T11:36:49;5.28;;;4.28;;
21181;SDS011;10749;46.296;7.524;2022-08-20T11:39:16;5.05;;;4.65;;
21181;SDS011;10749;46.296;7.524;2022-08-20T11:41:41;4.35;;;3.95;;
21181;SDS011;10749;46.296;7.524;2022-08-20T11:44:06;4.30;;;3.33;;
21181;SDS011;10749;46.296;7.524;2022-08-20T11:46:32;3.95;;;3.65;;
21181;SDS011;10749;46.296;7.524;2022-08-20T11:48:58;3.10;;;2.80;;
21181;SDS011;10749;46.296;7.524;2022-08-20T11:51:23;3.65;;;3.30;;
21181;SDS011;10749;46.296;7.524;2022-08-20T11:53:49;3.97;;;3.58;;
21181;SDS011;10749;46.296;7.524;2022-08-20T11:56:14;4.10;;;3.55;;
21181;SDS011;10749;46.296;7.524;2022-08-20T11:58:41;3.75;;;3.40;;
21181;SDS011;10749;46.296;7.524;2022-08-20T12:01:07;3.53;;;3.22;;
21181;SDS011;10749;46.296;7.524;2022-08-20T12:03:33;4.00;;;3.15;;
21181;SDS011;10749;46.296;7.524;2022-08-20T12:05:58;4.38;;;4.00;;
21181;SDS011;10749;46.296;7.524;2022-08-20T12:08:23;4.22;;;3.83;;
21181;SDS011;10749;46.296;7.524;2022-08-20T12:10:49;4.10;;;3.70;;
21181;SDS011;10749;46.296;7.524;2022-08-20T12:13:14;4.38;;;3.40;;
21181;SDS011;10749;46.296;7.524;2022-08-20T12:15:39;4.60;;;3.60;;
21181;SDS011;10749;46.296;7.524;2022-08-20T12:18:05;8.73;;;3.60;;
21181;SDS011;10749;46.296;7.524;2022-08-20T12:20:32;3.05;;;2.85;;
21181;SDS011;10749;46.296;7.524;2022-08-20T12:22:57;3.53;;;3.00;;
21181;SDS011;10749;46.296;7.524;2022-08-20T12:25:22;4.65;;;3.17;;
21181;SDS011;10749;46.296;7.524;2022-08-20T12:27:48;3.33;;;2.45;;
21181;SDS011;10749;46.296;7.524;2022-08-20T12:30:19;2.60;;;2.40;;
21181;SDS011;10749;46.296;7.524;2022-08-20T12:32:46;3.15;;;2.50;;
21181;SDS011;10749;46.296;7.524;2022-08-20T12:35:13;2.72;;;2.17;;
21181;SDS011;10749;46.296;7.524;2022-08-20T12:37:39;2.72;;;2.30;;
21181;SDS011;10749;46.296;7.524;2022-08-20T12:40:07;2.97;;;2.20;;
21181;SDS011;10749;46.296;7.524;2022-08-20T12:42:38;2.28;;;2.08;;
21181;SDS011;10749;46.296;7.524;2022-08-20T12:45:04;2.95;;;2.10;;
21181;SDS011;10749;46.296;7.524;2022-08-20T12:47:31;2.05;;;1.85;;
21181;SDS011;10749;46.296;7.524;2022-08-20T12:49:59;2.95;;;1.80;;
21181;SDS011;10749;46.296;7.524;2022-08-20T12:52:28;3.72;;;1.90;;
21181;SDS011;10749;46.296;7.524;2022-08-20T12:54:54;1.60;;;1.50;;
21181;SDS011;10749;46.296;7.524;2022-08-20T12:57:28;1.65;;;1.27;;
21181;SDS011;10749;46.296;7.524;2022-08-20T12:59:55;1.42;;;1.33;;
21181;SDS011;10749;46.296;7.524;2022-08-20T13:02:22;1.85;;;1.33;;
21181;SDS011;10749;46.296;7.524;2022-08-20T13:04:48;1.67;;;1.58;;
21181;SDS011;10749;46.296;7.524;2022-08-20T13:07:13;1.67;;;1.50;;
21181;SDS011;10749;46.296;7.524;2022-08-20T13:09:39;1.73;;;1.40;;
21181;SDS011;10749;46.296;7.524;2022-08-20T13:12:04;1.23;;;1.10;;
21181;SDS011;10749;46.296;7.524;2022-08-20T13:14:30;1.45;;;1.35;;
21181;SDS011;10749;46.296;7.524;2022-08-20T13:16:56;1.40;;;1.30;;
21181;SDS011;10749;46.296;7.524;2022-08-20T13:19:23;2.72;;;1.25;;
21181;SDS011;10749;46.296;7.524;2022-08-20T13:21:49;4.75;;;1.55;;
21181;SDS011;10749;46.296;7.524;2022-08-20T13:24:15;2.10;;;1.50;;
21181;SDS011;10749;46.296;7.524;2022-08-20T13:26:40;2.92;;;1.42;;
21181;SDS011;10749;46.296;7.524;2022-08-20T13:29:06;3.33;;;1.33;;
21181;SDS011;10749;46.296;7.524;2022-08-20T13:31:31;1.42;;;1.33;;
21181;SDS011;10749;46.296;7.524;2022-08-20T13:33:56;1.30;;;1.20;;
21181;SDS011;10749;46.296;7.524;2022-08-20T13:36:22;1.10;;;1.00;;
21181;SDS011;10749;46.296;7.524;2022-08-20T13:38:47;2.25;;;1.27;;
21181;SDS011;10749;46.296;7.524;2022-08-20T13:41:12;1.27;;;1.17;;
21181;SDS011;10749;46.296;7.524;2022-08-20T13:43:38;1.40;;;0.95;;
21181;SDS011;10749;46.296;7.524;2022-08-20T13:46:03;1.33;;;1.13;;
21181;SDS011;10749;46.296;7.524;2022-08-20T13:48:30;1.55;;;1.15;;
21181;SDS011;10749;46.296;7.524;2022-08-20T13:50:56;1.17;;;0.90;;
21181;SDS011;10749;46.296;7.524;2022-08-20T13:53:21;1.38;;;1.10;;
21181;SDS011;10749;46.296;7.524;2022-08-20T13:55:46;1.40;;;1.30;;
21181;SDS011;10749;46.296;7.524;2022-08-20T13:58:12;1.27;;;1.10;;
21181;SDS011;10749;46.296;7.524;2022-08-20T14:00:37;1.73;;;1.35;;
21181;SDS011;10749;46.296;7.524;2022-08-20T14:03:03;1.10;;;1.00;;
21181;SDS011;10749;46.296;7.524;2022-08-20T14:05:30;2.25;;;1.00;;
21181;SDS011;10749;46.296;7.524;2022-08-20T14:08:03;1.20;;;0.90;;
21181;SDS011;10749;46.296;7.524;2022-08-20T14:10:37;1.13;;;0.90;;
21181;SDS011;10749;46.296;7.524;2022-08-20T14:13:04;1.20;;;0.80;;
21181;SDS011;10749;46.296;7.524;2022-08-20T14:15:30;1.40;;;0.73;;
21181;SDS011;10749;46.296;7.524;2022-08-20T14:17:56;0.80;;;0.80;;
21181;SDS011;10749;46.296;7.524;2022-08-20T14:20:23;1.00;;;0.70;;
21181;SDS011;10749;46.296;7.524;2022-08-20T14:22:50;0.80;;;0.70;;
21181;SDS011;10749;46.296;7.524;2022-08-20T14:25:16;0.75;;;0.75;;
21181;SDS011;10749;46.296;7.524;2022-08-20T14:27:43;0.70;;;0.70;;
21181;SDS011;10749;46.296;7.524;2022-08-20T14:30:10;0.70;;;0.70;;
21181;SDS011;10749;46.296;7.524;2022-08-20T14:32:37;0.60;;;0.60;;
21181;SDS011;10749;46.296;7.524;2022-08-20T14:35:03;1.00;;;0.52;;
21181;SDS011;10749;46.296;7.524;2022-08-20T14:37:30;1.25;;;0.60;;
21181;SDS011;10749;46.296;7.524;2022-08-20T14:39:58;0.55;;;0.50;;
21181;SDS011;10749;46.296;7.524;2022-08-20T14:42:24;0.63;;;0.60;;
21181;SDS011;10749;46.296;7.524;2022-08-20T14:44:52;1.65;;;0.50;;
21181;SDS011;10749;46.296;7.524;2022-08-20T14:47:22;0.70;;;0.70;;
21181;SDS011;10749;46.296;7.524;2022-08-20T14:49:51;0.80;;;0.55;;
21181;SDS011;10749;46.296;7.524;2022-08-20T14:52:18;0.50;;;0.50;;
21181;SDS011;10749;46.296;7.524;2022-08-20T14:54:45;0.50;;;0.50;;